Time;durP1;ratioP1;P1;durP2;ratioP2;P2;SDS_P1;SDS_P2;PMS_P1;PMS_P2;Temp;Humidity;BMP_temperature;BMP_pressure;BME280_temperature;BME280_humidity;BME280_pressure;Samples;Min_cycle;Max_cycle;Signal;HPM_P1;HPM_P2
2023/10/03 00:01:29;;;;;;;11.48;5.07;;;;;;;17.70;78.52;99439.88;5074051;28;20113;-93
2023/10/03 00:03:56;;;;;;;11.63;4.90;;;;;;;17.75;79.19;99477.34;5077698;28;20490;-93
2023/10/03 00:06:21;;;;;;;12.55;4.97;;;;;;;17.68;78.60;99439.09;5077415;28;20044;-92
2023/10/03 00:08:49;;;;;;;14.90;5.53;;;;;;;17.47;78.55;99414.03;5077506;28;20055;-93
2023/10/03 00:11:18;;;;;;;13.70;5.75;;;;;;;17.85;79.36;99495.72;5076810;28;20045;-93
2023/10/03 00:13:45;;;;;;;13.63;5.55;;;;;;;17.84;79.79;99501.16;5076726;28;20040;-92
2023/10/03 00:16:11;;;;;;;8.75;5.25;;;;;;;17.64;80.44;99488.56;5077584;28;20049;-93
2023/10/03 00:18:37;;;;;;;13.93;5.70;;;;;;;17.63;80.98;99492.19;5077670;28;20048;-93
2023/10/03 00:21:03;;;;;;;10.68;5.22;;;;;;;17.47;80.90;99464.25;5077168;28;20033;-93
2023/10/03 00:23:29;;;;;;;14.63;5.45;;;;;;;17.76;80.26;99489.81;5076590;28;20539;-93
2023/10/03 00:25:59;;;;;;;12.32;5.60;;;;;;;17.82;79.57;99493.13;5076384;28;20036;-93
2023/10/03 00:28:26;;;;;;;11.98;4.40;;;;;;;17.91;79.61;99507.13;5074195;28;20076;-93
2023/10/03 00:30:52;;;;;;;10.07;4.75;;;;;;;17.62;79.74;99477.00;5077334;28;20032;-93
2023/10/03 00:33:21;;;;;;;11.20;5.47;;;;;;;17.25;80.50;99428.41;5077340;28;20063;-92
2023/10/03 00:35:47;;;;;;;10.10;4.45;;;;;;;17.44;80.35;99458.06;5077778;28;20080;-93
2023/10/03 00:38:14;;;;;;;12.43;4.63;;;;;;;17.28;79.83;99440.84;5077289;28;20040;-94
2023/10/03 00:40:41;;;;;;;9.98;3.90;;;;;;;17.14;80.90;99449.50;5077355;28;20052;-91
2023/10/03 00:43:11;;;;;;;12.15;4.30;;;;;;;17.47;80.29;99475.88;5075307;28;20037;-92
2023/10/03 00:45:37;;;;;;;8.75;3.83;;;;;;;17.38;79.47;99455.63;5072474;28;20072;-93
2023/10/03 00:48:06;;;;;;;11.48;4.68;;;;;;;17.49;79.89;99484.75;5076835;28;20025;-93
2023/10/03 00:50:34;;;;;;;12.00;4.78;;;;;;;17.33;79.88;99449.59;5075247;28;20101;-92
2023/10/03 00:53:04;;;;;;;11.30;4.53;;;;;;;17.33;79.67;99441.53;5076658;28;20123;-93
2023/10/03 00:55:33;;;;;;;10.93;4.03;;;;;;;17.11;80.04;99419.19;5076278;28;20040;-93
2023/10/03 01:01:03;;;;;;;8.07;4.10;;;;;;;17.42;81.07;99486.81;5093089;27;20375;-95
2023/10/03 01:03:31;;;;;;;8.88;3.92;;;;;;;17.12;81.73;99437.97;5092770;28;20070;-94
2023/10/03 01:05:59;;;;;;;9.98;4.03;;;;;;;17.41;82.00;99489.56;5092117;28;20044;-94
2023/10/03 01:08:25;;;;;;;11.40;4.13;;;;;;;17.27;82.14;99468.69;5090273;28;20044;-94
2023/10/03 01:10:51;;;;;;;9.63;4.18;;;;;;;17.19;81.93;99463.63;5092364;28;20052;-93
2023/10/03 01:13:19;;;;;;;10.70;4.38;;;;;;;16.96;81.81;99427.00;5092861;28;20036;-94
2023/10/03 01:15:49;;;;;;;9.65;3.92;;;;;;;16.84;81.63;99400.66;5091474;28;20044;-94
2023/10/03 01:18:20;;;;;;;9.98;5.05;;;;;;;17.06;82.16;99442.72;5091956;28;20074;-93
2023/10/03 01:20:48;;;;;;;10.13;5.40;;;;;;;16.70;83.13;99408.38;5091923;28;20457;-94
2023/10/03 01:23:16;;;;;;;7.63;4.68;;;;;;;16.78;83.19;99417.00;5092995;28;20381;-95
2023/10/03 01:25:43;;;;;;;10.95;4.30;;;;;;;16.83;83.00;99426.66;5092208;28;20036;-93
2023/10/03 01:28:09;;;;;;;11.35;4.63;;;;;;;16.86;83.25;99444.44;5092205;28;20064;-95
2023/10/03 01:30:37;;;;;;;10.35;4.10;;;;;;;16.82;83.81;99445.50;5092017;28;20097;-95
2023/10/03 01:33:04;;;;;;;8.75;3.85;;;;;;;16.76;85.01;99461.84;5090614;28;20044;-95
2023/10/03 01:35:30;;;;;;;9.07;4.90;;;;;;;16.66;84.43;99428.25;5091992;28;20442;-95
2023/10/03 01:37:56;;;;;;;11.18;3.60;;;;;;;16.79;84.22;99442.94;5092556;28;20060;-95
2023/10/03 01:40:23;;;;;;;9.60;4.78;;;;;;;16.62;83.57;99409.56;5092284;28;20424;-93
2023/10/03 01:42:50;;;;;;;11.18;4.22;;;;;;;16.52;83.46;99394.78;5089239;28;20052;-93
2023/10/03 01:45:22;;;;;;;7.63;3.42;;;;;;;16.67;83.34;99413.88;5091344;28;20048;-94
2023/10/03 01:47:50;;;;;;;10.55;4.03;;;;;;;16.87;83.16;99453.38;5091636;28;20043;-95
2023/10/03 01:50:18;;;;;;;9.38;3.85;;;;;;;16.76;84.11;99429.59;5091571;28;20105;-95
2023/10/03 01:52:46;;;;;;;11.77;4.40;;;;;;;16.72;83.63;99423.50;5090591;28;20036;-94
2023/10/03 01:55:13;;;;;;;10.73;4.10;;;;;;;16.63;84.65;99423.88;5091248;28;20134;-93
2023/10/03 01:57:41;;;;;;;11.38;3.97;;;;;;;16.31;85.25;99374.19;5090499;28;20044;-93
2023/10/03 02:00:20;;;;;;;10.52;4.88;;;;;;;16.45;85.72;99430.88;5090698;28;20420;-94
2023/10/03 02:02:47;;;;;;;12.05;4.95;;;;;;;16.43;86.15;99424.69;5090193;28;20048;-94
2023/10/03 02:05:14;;;;;;;9.55;3.40;;;;;;;16.07;85.89;99368.00;5091339;28;20052;-95
2023/10/03 02:07:41;;;;;;;10.73;4.55;;;;;;;16.59;85.37;99441.94;5091559;28;20047;-95
2023/10/03 02:10:07;;;;;;;9.30;3.70;;;;;;;16.54;84.96;99427.81;5090750;28;20044;-93
2023/10/03 02:12:33;;;;;;;7.47;3.33;;;;;;;16.53;84.03;99411.78;5077738;28;20131;-95
2023/10/03 02:15:07;;;;;;;10.68;4.40;;;;;;;16.48;84.48;99406.59;5077561;28;20064;-94
2023/10/03 02:17:34;;;;;;;8.55;3.58;;;;;;;16.75;84.12;99454.72;5077780;28;20051;-95
2023/10/03 02:20:00;;;;;;;8.90;3.50;;;;;;;16.31;84.10;99374.19;5076861;28;20579;-94
2023/10/03 02:22:26;;;;;;;8.73;3.33;;;;;;;16.38;85.77;99403.41;5077475;28;20063;-95
2023/10/03 02:24:52;;;;;;;10.05;3.75;;;;;;;16.63;85.38;99448.03;5076984;28;20041;-95
2023/10/03 02:27:18;;;;;;;9.13;3.60;;;;;;;16.38;86.14;99413.28;5076880;28;20064;-95
2023/10/03 02:29:44;;;;;;;8.45;3.08;;;;;;;16.23;86.19;99406.72;5076844;28;20045;-93
2023/10/03 02:32:11;;;;;;;8.20;3.17;;;;;;;16.06;86.80;99393.09;5076903;28;20120;-94
2023/10/03 02:34:39;;;;;;;8.75;4.20;;;;;;;16.20;86.93;99412.22;5074739;28;20447;-95
2023/10/03 02:37:05;;;;;;;11.70;4.30;;;;;;;16.05;88.03;99399.38;5075800;28;20480;-94
2023/10/03 02:39:39;;;;;;;7.53;3.40;;;;;;;15.96;88.58;99387.19;5075832;28;20040;-95
2023/10/03 02:42:06;;;;;;;9.60;3.60;;;;;;;16.14;87.52;99413.31;5076797;28;20040;-94
2023/10/03 02:44:32;;;;;;;10.43;4.18;;;;;;;16.14;87.62;99421.38;5077162;28;20086;-94
2023/10/03 02:46:58;;;;;;;8.18;3.75;;;;;;;16.02;87.88;99392.34;5075032;28;20093;-94
2023/10/03 02:49:25;;;;;;;9.75;3.53;;;;;;;16.11;87.36;99404.50;5076154;28;20494;-93
2023/10/03 02:51:53;;;;;;;11.60;3.78;;;;;;;16.12;86.66;99409.81;5076757;28;20110;-94
2023/10/03 02:54:18;;;;;;;12.82;3.75;;;;;;;16.22;87.71;99434.47;5076793;28;20486;-95
2023/10/03 02:56:44;;;;;;;8.65;3.42;;;;;;;16.12;87.37;99411.63;5076580;28;20045;-94
2023/10/03 02:59:10;;;;;;;6.32;3.05;;;;;;;16.15;87.44;99427.59;5076220;28;20040;-94
2023/10/03 03:01:38;;;;;;;10.75;4.55;;;;;;;15.80;88.50;99387.78;5075654;28;20788;-95
2023/10/03 03:04:04;;;;;;;9.77;4.10;;;;;;;15.87;88.78;99412.56;5076717;28;20098;-94
2023/10/03 03:06:32;;;;;;;7.93;3.50;;;;;;;15.89;89.63;99426.81;5076770;28;20532;-94
2023/10/03 03:08:57;;;;;;;7.70;4.05;;;;;;;15.53;89.75;99352.19;5075424;28;20039;-95
2023/10/03 03:11:23;;;;;;;8.88;3.72;;;;;;;15.90;90.18;99414.28;5076996;28;20127;-94
2023/10/03 03:13:49;;;;;;;8.88;3.38;;;;;;;15.75;89.94;99397.84;5075684;28;20064;-94
2023/10/03 03:16:15;;;;;;;10.38;4.75;;;;;;;15.40;90.04;99343.72;5075746;28;20497;-94
2023/10/03 03:18:41;;;;;;;9.98;4.10;;;;;;;15.54;90.63;99372.69;5075584;28;20072;-94
2023/10/03 03:21:10;;;;;;;10.40;3.75;;;;;;;15.53;90.62;99378.13;5076190;28;20041;-94
2023/10/03 03:23:39;;;;;;;7.72;3.20;;;;;;;15.84;90.62;99438.66;5075916;28;20123;-95
2023/10/03 03:26:17;;;;;;;7.85;3.33;;;;;;;15.56;91.03;99380.66;5076355;28;20041;-93
2023/10/03 03:28:44;;;;;;;8.73;3.53;;;;;;;15.51;91.22;99366.56;5075481;28;20032;-94
2023/10/03 03:31:32;;;;;;;10.27;3.65;;;;;;;15.64;91.98;99397.34;5075667;28;20133;-94
2023/10/03 03:33:57;;;;;;;10.10;3.60;;;;;;;15.56;91.55;99386.91;5062704;28;20032;-94
2023/10/03 03:36:24;;;;;;;8.40;3.58;;;;;;;15.77;92.54;99433.53;5075703;28;20041;-93
2023/10/03 03:38:51;;;;;;;9.45;4.38;;;;;;;15.52;93.37;99389.75;5075985;28;20101;-94
2023/10/03 03:41:18;;;;;;;9.25;4.28;;;;;;;15.31;94.16;99368.19;5075949;28;20048;-94
2023/10/03 03:43:44;;;;;;;7.30;3.58;;;;;;;15.36;93.61;99374.25;5076114;28;20036;-94
2023/10/03 03:46:12;;;;;;;12.90;4.25;;;;;;;15.43;93.63;99374.88;5075347;28;20051;-95
2023/10/03 03:48:38;;;;;;;13.15;4.25;;;;;;;15.63;94.42;99418.84;5075739;28;20498;-94
2023/10/03 03:51:06;;;;;;;9.30;3.63;;;;;;;15.41;94.06;99382.09;5073291;28;20033;-94
2023/10/03 03:53:33;;;;;;;11.20;4.13;;;;;;;15.72;94.41;99432.81;5075334;28;20035;-93
2023/10/03 03:56:00;;;;;;;9.05;4.68;;;;;;;15.70;94.64;99437.34;5075981;28;20448;-94
2023/10/03 03:58:26;;;;;;;10.00;4.45;;;;;;;15.46;94.78;99401.59;5075053;28;20070;-93
2023/10/03 04:00:52;;;;;;;8.90;4.35;;;;;;;15.36;95.49;99384.97;5073554;28;20082;-93
2023/10/03 04:03:18;;;;;;;8.57;3.78;;;;;;;15.46;95.53;99411.41;5075577;28;20047;-94
2023/10/03 04:05:46;;;;;;;11.68;4.22;;;;;;;15.37;95.78;99401.91;5075457;28;20131;-94
2023/10/03 04:08:12;;;;;;;9.02;4.03;;;;;;;15.55;95.81;99433.41;5075253;28;20040;-95
2023/10/03 04:10:38;;;;;;;10.40;4.32;;;;;;;15.04;95.18;99348.63;5075238;28;20071;-94
2023/10/03 04:13:10;;;;;;;8.70;4.07;;;;;;;15.23;95.31;99388.16;5075036;28;20040;-94
2023/10/03 04:15:39;;;;;;;11.02;4.10;;;;;;;15.57;94.56;99434.22;5073839;28;20045;-94
2023/10/03 04:18:06;;;;;;;7.85;3.67;;;;;;;15.12;94.66;99369.78;5074825;28;20048;-94
2023/10/03 04:20:33;;;;;;;8.30;3.45;;;;;;;15.11;95.77;99373.38;5074878;28;20158;-94
2023/10/03 04:22:59;;;;;;;9.48;4.07;;;;;;;15.16;96.16;99398.22;5075054;28;20067;-94
2023/10/03 04:25:26;;;;;;;11.35;3.80;;;;;;;15.17;96.65;99398.16;5075770;28;20041;-94
2023/10/03 04:27:53;;;;;;;8.82;4.03;;;;;;;15.22;96.42;99411.38;5075515;28;20056;-94
2023/10/03 04:30:21;;;;;;;10.48;4.00;;;;;;;15.07;96.15;99375.31;5075505;28;20067;-94
2023/10/03 04:32:47;;;;;;;9.55;4.00;;;;;;;15.27;97.86;99441.56;5075407;28;20048;-95
2023/10/03 04:35:14;;;;;;;8.77;4.03;;;;;;;15.14;99.39;99427.72;5074804;28;20458;-93
2023/10/03 04:37:41;;;;;;;9.00;3.63;;;;;;;15.12;98.73;99418.00;5074174;28;20036;-94
2023/10/03 04:40:12;;;;;;;9.57;3.92;;;;;;;14.80;98.65;99369.13;5074886;28;20040;-94
2023/10/03 04:42:38;;;;;;;8.70;3.90;;;;;;;14.54;98.64;99311.97;5075543;28;20040;-94
2023/10/03 04:45:07;;;;;;;9.20;3.78;;;;;;;15.17;98.37;99421.38;5074618;28;20033;-93
2023/10/03 04:47:34;;;;;;;8.90;3.90;;;;;;;15.00;98.21;99390.69;5075985;28;20048;-94
2023/10/03 04:50:00;;;;;;;9.45;4.05;;;;;;;15.14;98.17;99413.47;5075013;28;20086;-95
2023/10/03 04:52:26;;;;;;;8.77;3.88;;;;;;;14.75;97.65;99349.66;5074102;28;20040;-93
2023/10/03 04:54:53;;;;;;;10.13;4.53;;;;;;;15.32;97.85;99444.97;5075070;28;20048;-94
2023/10/03 04:57:18;;;;;;;9.48;4.32;;;;;;;14.84;98.20;99373.44;5075093;28;20039;-96
2023/10/03 04:59:44;;;;;;;10.40;4.70;;;;;;;14.88;98.69;99382.25;5075289;28;20468;-94
2023/10/03 05:02:10;;;;;;;8.63;4.43;;;;;;;15.17;99.31;99449.03;5077321;28;20498;-94
2023/10/03 05:04:40;;;;;;;9.27;4.57;;;;;;;14.49;100.00;99335.34;5078327;28;20097;-94
2023/10/03 05:07:06;;;;;;;12.43;4.75;;;;;;;14.60;100.00;99364.44;5073126;28;20044;-94
2023/10/03 05:09:33;;;;;;;10.73;4.53;;;;;;;14.66;100.00;99363.34;5075828;28;20048;-94
2023/10/03 05:11:58;;;;;;;8.57;4.03;;;;;;;14.81;100.00;99383.38;5074581;28;20049;-93
2023/10/03 05:14:25;;;;;;;11.20;4.68;;;;;;;15.23;100.00;99456.00;5076481;28;20063;-96
2023/10/03 05:16:52;;;;;;;9.45;4.13;;;;;;;15.02;100.00;99427.28;5080588;28;20072;-95
2023/10/03 05:19:19;;;;;;;10.02;4.22;;;;;;;14.97;100.00;99409.56;5081923;28;20045;-95
2023/10/03 05:21:47;;;;;;;10.63;4.65;;;;;;;15.02;100.00;99430.84;5078973;28;20098;-94
2023/10/03 05:24:15;;;;;;;11.57;4.88;;;;;;;15.23;100.00;99453.31;5079604;28;20041;-93
2023/10/03 05:26:41;;;;;;;10.70;4.75;;;;;;;14.56;100.00;99355.63;5070258;28;20021;-94
2023/10/03 05:29:07;;;;;;;8.63;3.80;;;;;;;14.86;100.00;99403.72;5078885;28;20041;-93
2023/10/03 05:31:34;;;;;;;9.55;4.35;;;;;;;14.94;100.00;99412.38;5076333;28;20064;-94
2023/10/03 05:34:00;;;;;;;10.77;4.60;;;;;;;14.85;100.00;99399.28;5076958;28;20037;-93
2023/10/03 05:36:27;;;;;;;11.05;4.40;;;;;;;14.76;100.00;99378.19;5077915;28;20515;-93
2023/10/03 05:38:54;;;;;;;11.77;4.57;;;;;;;14.84;100.00;99381.47;5077859;28;20040;-93
2023/10/03 05:41:23;;;;;;;13.48;4.97;;;;;;;14.94;100.00;99404.34;5078029;28;20040;-95
2023/10/03 05:43:49;;;;;;;10.35;4.13;;;;;;;15.26;100.00;99461.25;5077151;28;20045;-94
2023/10/03 05:46:15;;;;;;;10.50;4.15;;;;;;;15.04;100.00;99425.44;5078562;28;20036;-93
2023/10/03 05:48:43;;;;;;;8.52;3.92;;;;;;;14.89;100.00;99395.56;5081355;28;20036;-93
2023/10/03 05:51:08;;;;;;;12.80;4.18;;;;;;;14.89;100.00;99394.69;5078998;28;20036;-94
2023/10/03 05:53:34;;;;;;;12.38;4.50;;;;;;;15.04;100.00;99410.22;5080977;28;20062;-95
2023/10/03 05:56:04;;;;;;;10.07;4.22;;;;;;;15.46;100.00;99482.00;5080642;28;20114;-93
2023/10/03 05:58:30;;;;;;;;;;;;;;;15.74;100.00;99476.56;5079367;28;20040;-95
2023/10/03 06:00:56;;;;;;;10.77;4.60;;;;;;;15.52;97.95;99365.63;5081294;28;20386;-93
2023/10/03 06:03:23;;;;;;;8.95;4.03;;;;;;;15.76;94.86;99361.16;5083365;28;20037;-94
2023/10/03 06:05:50;;;;;;;8.57;4.35;;;;;;;15.93;94.99;99412.34;5081200;28;20052;-93
2023/10/03 06:08:17;;;;;;;10.60;4.25;;;;;;;16.27;94.73;99471.88;5081470;28;20111;-93
2023/10/03 06:10:43;;;;;;;11.25;4.47;;;;;;;16.07;95.11;99427.91;5081456;28;20032;-93
2023/10/03 06:13:11;;;;;;;9.57;4.43;;;;;;;16.13;94.77;99446.44;5081069;28;20067;-94
2023/10/03 06:15:41;;;;;;;10.05;4.07;;;;;;;16.01;95.58;99420.09;5081450;28;20610;-94
2023/10/03 06:18:08;;;;;;;13.23;4.25;;;;;;;16.07;95.49;99430.59;5082032;28;20131;-93
2023/10/03 06:20:34;;;;;;;11.77;4.38;;;;;;;15.82;94.62;99380.56;5082310;28;20033;-94
2023/10/03 06:23:00;;;;;;;9.25;4.47;;;;;;;16.37;93.86;99468.78;5081471;28;20048;-94
2023/10/03 06:25:26;;;;;;;12.43;4.45;;;;;;;16.45;92.56;99463.09;5080861;28;20044;-94
2023/10/03 06:27:52;;;;;;;9.77;4.63;;;;;;;16.58;91.77;99466.16;5080573;28;20140;-95
2023/10/03 06:30:19;;;;;;;8.00;4.10;;;;;;;16.58;91.00;99436.63;5078497;28;20094;-93
2023/10/03 06:32:45;;;;;;;8.80;4.18;;;;;;;16.31;89.95;99376.88;5080619;28;20029;-96
2023/10/03 06:35:12;;;;;;;10.02;4.47;;;;;;;16.82;89.55;99458.94;5079737;28;20504;-95
2023/10/03 06:37:38;;;;;;;9.77;4.20;;;;;;;16.43;88.87;99368.31;5079288;28;20041;-93
2023/10/03 06:40:06;;;;;;;16.05;4.72;;;;;;;16.89;89.05;99428.19;5078294;28;20570;-95
2023/10/03 06:42:34;;;;;;;10.02;4.22;;;;;;;16.96;87.99;99436.88;5078859;28;20136;-92
2023/10/03 06:45:00;;;;;;;10.15;3.95;;;;;;;17.34;87.03;99486.28;5080125;28;20093;-95
2023/10/03 06:47:29;;;;;;;10.00;4.05;;;;;;;17.52;86.22;99483.72;5079268;28;20045;-94
2023/10/03 06:49:55;;;;;;;8.77;4.20;;;;;;;17.28;85.40;99419.34;5077139;28;20041;-94
2023/10/03 06:52:21;;;;;;;9.98;4.57;;;;;;;17.69;84.88;99475.78;5079555;28;20040;-95
2023/10/03 06:54:47;;;;;;;9.88;4.03;;;;;;;17.61;83.96;99432.25;5078431;28;20064;-94
2023/10/03 06:57:14;;;;;;;22.25;4.88;;;;;;;17.77;83.75;99476.31;5079142;28;20020;-94
2023/10/03 06:59:40;;;;;;;8.57;3.92;;;;;;;17.79;82.92;99449.34;5078203;28;20047;-93
2023/10/03 07:02:07;;;;;;;8.57;4.78;;;;;;;17.66;83.35;99428.38;5076943;28;20068;-93
2023/10/03 07:04:35;;;;;;;18.02;4.30;;;;;;;18.09;82.08;99447.09;5078484;28;20055;-95
2023/10/03 07:07:02;;;;;;;8.20;3.97;;;;;;;18.34;80.92;99459.38;5079542;28;20044;-94
2023/10/03 07:09:28;;;;;;;10.80;4.72;;;;;;;18.46;79.42;99466.88;5079496;28;20041;-96
2023/10/03 07:11:54;;;;;;;15.07;5.13;;;;;;;18.37;78.46;99418.84;5079412;28;20098;-94
2023/10/03 07:14:20;;;;;;;13.70;5.15;;;;;;;18.68;78.55;99447.84;5078537;28;20047;-92
2023/10/03 07:16:48;;;;;;;13.40;4.85;;;;;;;18.88;76.80;99457.66;5078829;28;20044;-94
2023/10/03 07:19:14;;;;;;;13.50;5.57;;;;;;;19.03;75.63;99462.25;5080452;28;20060;-95
2023/10/03 07:21:42;;;;;;;12.18;5.45;;;;;;;18.96;74.09;99424.94;5080285;28;20044;-94
2023/10/03 07:24:08;;;;;;;13.23;5.28;;;;;;;19.43;73.10;99462.03;5079840;28;20135;-95
2023/10/03 07:26:34;;;;;;;8.45;3.65;;;;;;;19.62;71.04;99472.72;5080535;28;20094;-95
2023/10/03 07:29:02;;;;;;;11.85;3.90;;;;;;;19.34;71.02;99436.41;5080033;28;20045;-94
2023/10/03 07:31:28;;;;;;;7.45;3.78;;;;;;;19.23;68.89;99395.66;5079235;28;20051;-95
2023/10/03 07:33:55;;;;;;;9.18;3.70;;;;;;;19.65;70.39;99480.69;5077310;28;20053;-94
2023/10/03 07:36:21;;;;;;;8.43;3.65;;;;;;;19.69;69.80;99441.75;5080052;28;20041;-94
2023/10/03 07:38:49;;;;;;;8.30;3.72;;;;;;;19.31;68.97;99401.53;5079486;28;20044;-95
2023/10/03 07:41:17;;;;;;;9.00;4.32;;;;;;;19.50;68.43;99388.81;5081431;28;20145;-94
2023/10/03 07:43:52;;;;;;;11.43;4.43;;;;;;;19.52;68.13;99393.22;5081619;28;20037;-94
2023/10/03 07:46:20;;;;;;;8.80;3.78;;;;;;;20.10;67.60;99447.66;5080362;28;20051;-95
2023/10/03 07:48:48;;;;;;;8.82;4.13;;;;;;;20.42;66.87;99453.06;5080888;28;20115;-95
2023/10/03 07:51:18;;;;;;;9.38;4.35;;;;;;;20.56;65.02;99476.59;5079103;28;20059;-94
2023/10/03 07:53:43;;;;;;;10.70;3.97;;;;;;;20.60;64.34;99485.41;5077915;28;20048;-94
2023/10/03 07:56:17;;;;;;;9.15;4.13;;;;;;;20.19;65.51;99419.25;5078935;28;20181;-95
2023/10/03 07:58:44;;;;;;;11.05;3.83;;;;;;;20.81;64.69;99495.00;5077833;28;20055;-95
2023/10/03 08:01:13;;;;;;;8.80;4.38;;;;;;;20.70;64.07;99444.28;5078377;28;20119;-94
2023/10/03 08:03:39;;;;;;;11.07;4.60;;;;;;;20.67;64.82;99482.28;5078104;28;20135;-95
2023/10/03 08:06:05;;;;;;;10.50;3.50;;;;;;;20.88;63.78;99441.44;5077702;28;20068;-96
2023/10/03 08:08:32;;;;;;;10.73;3.83;;;;;;;21.27;63.19;99449.03;5078185;28;20060;-94
2023/10/03 08:10:58;;;;;;;7.70;4.15;;;;;;;21.67;63.03;99494.50;5078484;28;20083;-94
2023/10/03 08:13:26;;;;;;;9.68;3.90;;;;;;;21.43;61.83;99458.97;5077954;28;20112;-95
2023/10/03 08:15:51;;;;;;;8.23;4.13;;;;;;;21.40;61.67;99429.34;5077735;28;20048;-94
2023/10/03 08:18:18;;;;;;;7.30;3.67;;;;;;;21.62;60.26;99458.69;5077041;28;20110;-94
2023/10/03 08:20:45;;;;;;;9.93;3.95;;;;;;;21.80;60.71;99473.81;5076203;28;20043;-94
2023/10/03 08:23:11;;;;;;;9.85;4.50;;;;;;;21.62;59.63;99437.03;5076203;28;20135;-95
2023/10/03 08:25:41;;;;;;;11.75;5.30;;;;;;;21.64;60.60;99445.94;5077346;28;20060;-93
2023/10/03 08:28:10;;;;;;;9.02;4.15;;;;;;;21.73;58.52;99448.97;5078552;28;20044;-95
2023/10/03 08:30:38;;;;;;;10.18;4.75;;;;;;;21.52;59.84;99399.72;5077003;28;20033;-95
2023/10/03 08:33:05;;;;;;;10.60;4.47;;;;;;;21.78;58.42;99404.50;5076741;28;20486;-96
2023/10/03 08:35:34;;;;;;;10.43;4.03;;;;;;;22.57;57.09;99485.22;5078114;28;20040;-96
2023/10/03 08:38:04;;;;;;;10.88;4.13;;;;;;;22.32;57.86;99416.34;5077740;28;20040;-95
2023/10/03 08:40:36;;;;;;;12.18;3.88;;;;;;;22.90;57.94;99501.13;5077373;28;20040;-94
2023/10/03 08:43:04;;;;;;;10.75;4.13;;;;;;;22.58;57.79;99411.06;5077317;28;20075;-95
2023/10/03 08:45:35;;;;;;;9.15;3.95;;;;;;;22.95;57.33;99469.13;5072400;28;20045;-96
2023/10/03 08:48:06;;;;;;;9.52;4.50;;;;;;;23.03;56.94;99451.47;5076351;28;20045;-96
2023/10/03 08:50:39;;;;;;;12.18;4.32;;;;;;;23.04;56.19;99442.41;5076780;28;20509;-95
2023/10/03 08:53:12;;;;;;;11.88;4.15;;;;;;;23.07;55.92;99440.31;5074648;28;20520;-94
2023/10/03 08:55:44;;;;;;;11.27;4.15;;;;;;;23.37;56.03;99460.91;5078034;28;20040;-94
2023/10/03 08:58:14;;;;;;;10.80;4.80;;;;;;;23.38;55.19;99435.53;5075956;28;20045;-95
2023/10/03 09:00:45;;;;;;;9.18;3.88;;;;;;;23.52;54.51;99429.97;5076765;28;20045;-94
2023/10/03 09:03:15;;;;;;;10.50;4.53;;;;;;;23.43;53.44;99403.50;5076644;28;20033;-95
2023/10/03 09:05:41;;;;;;;11.88;4.55;;;;;;;23.52;52.71;99419.13;5076924;28;20043;-95
2023/10/03 09:08:08;;;;;;;8.45;4.22;;;;;;;23.79;51.98;99467.09;5075914;28;20044;-95
2023/10/03 09:10:42;;;;;;;10.40;4.22;;;;;;;23.92;51.53;99465.25;5076516;28;20047;-96
2023/10/03 09:13:16;;;;;;;16.25;4.80;;;;;;;23.85;51.73;99435.88;5076288;28;20052;-96
2023/10/03 09:15:42;;;;;;;10.43;4.28;;;;;;;23.98;51.41;99453.94;5076011;28;20064;-95
2023/10/03 09:18:10;;;;;;;9.80;3.97;;;;;;;24.20;51.27;99468.66;5075936;28;20048;-95
2023/10/03 09:20:39;;;;;;;11.85;4.50;;;;;;;24.21;51.55;99464.13;5074701;28;20040;-96
2023/10/03 09:23:05;;;;;;;11.35;4.95;;;;;;;23.82;51.65;99403.53;5080115;28;20508;-95
2023/10/03 09:25:32;;;;;;;13.18;5.13;;;;;;;24.37;51.28;99471.03;5080463;28;20133;-95
2023/10/03 09:28:03;;;;;;;10.98;4.90;;;;;;;24.46;51.58;99463.19;5081904;28;20040;-95
2023/10/03 09:30:37;;;;;;;13.82;5.22;;;;;;;24.14;50.62;99382.19;5078302;28;20040;-95
2023/10/03 09:33:04;;;;;;;11.50;5.07;;;;;;;24.50;49.87;99475.59;5082194;28;20049;-95
2023/10/03 09:35:31;;;;;;;12.13;5.38;;;;;;;24.70;50.59;99457.81;5081598;28;20131;-94
2023/10/03 09:38:04;;;;;;;9.48;4.45;;;;;;;24.78;50.25;99436.34;5081740;28;20112;-95
2023/10/03 09:40:47;;;;;;;10.07;5.07;;;;;;;24.86;50.08;99449.38;5080612;28;20127;-95
2023/10/03 09:43:16;;;;;;;12.27;4.95;;;;;;;24.75;49.25;99414.84;5081994;28;20067;-96
2023/10/03 09:45:45;;;;;;;11.23;5.20;;;;;;;24.70;49.80;99439.66;5080235;28;20099;-95
2023/10/03 09:48:12;;;;;;;11.15;5.18;;;;;;;24.95;49.35;99452.25;5081082;28;20498;-96
2023/10/03 09:50:51;;;;;;;11.25;4.70;;;;;;;24.94;50.17;99425.16;5081664;28;20052;-95
2023/10/03 09:53:25;;;;;;;13.00;5.80;;;;;;;24.39;49.01;99381.22;5079378;28;20516;-96
2023/10/03 09:55:51;;;;;;;10.02;5.18;;;;;;;24.82;49.17;99390.75;5076663;28;20516;-95
2023/10/03 09:58:24;;;;;;;13.20;4.95;;;;;;;25.34;48.99;99444.78;5081281;28;20041;-95
2023/10/03 10:00:52;;;;;;;12.25;5.53;;;;;;;25.27;47.97;99427.19;5079137;28;20045;-93
2023/10/03 10:03:26;;;;;;;11.20;5.35;;;;;;;25.50;47.53;99440.88;5079597;28;20044;-94
2023/10/03 10:06:01;;;;;;;11.60;5.90;;;;;;;25.34;46.80;99403.09;5081450;28;20131;-93
2023/10/03 10:08:41;;;;;;;14.73;5.82;;;;;;;24.99;48.12;99433.88;5081944;28;20044;-95
2023/10/03 10:11:09;;;;;;;13.52;5.78;;;;;;;24.97;48.46;99408.63;5082728;28;20036;-95
2023/10/03 10:13:37;;;;;;;10.52;5.05;;;;;;;25.15;47.45;99428.09;5079078;28;20040;-94
2023/10/03 10:16:07;;;;;;;13.38;5.57;;;;;;;25.05;48.27;99436.13;5077697;28;20032;-95
2023/10/03 10:18:58;;;;;;;12.25;5.05;;;;;;;25.29;48.32;99452.44;5080002;28;20044;-94
2023/10/03 10:21:26;;;;;;;10.38;5.60;;;;;;;25.39;48.49;99419.91;5079078;28;20071;-95
2023/10/03 10:24:25;;;;;;;11.63;4.95;;;;;;;25.64;48.27;99445.25;5079839;28;20130;-95
2023/10/03 10:26:52;;;;;;;10.20;5.47;;;;;;;25.59;47.64;99424.69;5079362;28;20091;-93
2023/10/03 10:29:20;;;;;;;11.75;5.85;;;;;;;25.34;47.16;99422.16;5078820;28;20052;-94
2023/10/03 10:31:57;;;;;;;13.20;5.45;;;;;;;25.49;47.48;99409.19;5078962;28;20063;-95
2023/10/03 10:34:46;;;;;;;13.38;5.05;;;;;;;25.87;46.49;99432.50;5081091;28;20036;-95
2023/10/03 10:37:17;;;;;;;9.82;5.25;;;;;;;25.68;46.07;99378.66;5077887;28;20401;-96
2023/10/03 10:40:10;;;;;;;10.80;5.63;;;;;;;25.71;46.55;99428.28;5075517;28;20060;-94
2023/10/03 10:42:59;;;;;;;11.05;5.63;;;;;;;25.55;47.58;99376.03;5078348;28;20045;-95
2023/10/03 10:45:26;;;;;;;10.73;4.70;;;;;;;25.92;47.18;99409.41;5075253;28;20094;-95
2023/10/03 10:47:54;;;;;;;12.60;5.95;;;;;;;25.86;45.91;99423.47;5079217;28;20484;-95
2023/10/03 10:50:25;;;;;;;12.95;5.20;;;;;;;25.73;46.18;99360.06;5078216;28;20039;-94
2023/10/03 10:52:53;;;;;;;9.32;5.00;;;;;;;25.63;46.11;99362.66;5077685;28;20043;-94
2023/10/03 10:55:21;;;;;;;10.20;5.07;;;;;;;25.69;46.46;99394.84;5078416;28;20067;-95
2023/10/03 10:57:47;;;;;;;12.48;5.15;;;;;;;25.61;45.58;99342.84;5079314;28;20513;-95
2023/10/03 11:00:16;;;;;;;12.85;5.00;;;;;;;25.97;46.12;99381.75;5077899;28;20128;-93
2023/10/03 11:02:43;;;;;;;9.95;4.82;;;;;;;26.13;45.63;99379.53;5078398;28;20067;-94
2023/10/03 11:05:10;;;;;;;14.02;5.47;;;;;;;26.16;45.96;99362.06;5077346;28;20092;-94
2023/10/03 11:07:37;;;;;;;14.20;5.22;;;;;;;26.09;45.43;99333.56;5078515;28;20041;-96
2023/10/03 11:10:04;;;;;;;11.13;5.15;;;;;;;26.40;45.06;99381.84;5077669;28;20104;-95
2023/10/03 11:12:32;;;;;;;13.02;4.95;;;;;;;26.36;45.00;99372.16;5079028;28;20040;-96
2023/10/03 11:14:58;;;;;;;12.18;4.80;;;;;;;26.22;44.90;99337.03;5077276;28;20064;-95
2023/10/03 11:17:25;;;;;;;11.27;6.38;;;;;;;26.38;44.13;99337.47;5076785;28;20492;-95
2023/10/03 11:19:52;;;;;;;12.02;5.03;;;;;;;26.54;43.95;99361.56;5074938;28;20056;-95
2023/10/03 11:22:19;;;;;;;8.80;4.80;;;;;;;26.53;44.78;99351.69;5077081;28;20044;-94
2023/10/03 11:24:45;;;;;;;10.75;5.18;;;;;;;26.78;44.34;99375.06;5076476;28;20064;-94
2023/10/03 11:27:21;;;;;;;10.98;5.10;;;;;;;26.53;43.40;99316.22;5076759;28;20071;-93
2023/10/03 11:29:49;;;;;;;14.75;5.30;;;;;;;26.80;44.59;99353.94;5076986;28;20048;-93
2023/10/03 11:32:23;;;;;;;10.23;4.70;;;;;;;26.73;44.14;99328.19;5076223;28;20406;-96
2023/10/03 11:34:48;;;;;;;11.27;5.15;;;;;;;26.90;42.54;99342.28;5076753;28;20049;-94
2023/10/03 11:37:36;;;;;;;8.45;4.47;;;;;;;26.98;42.75;99353.41;5077384;28;20033;-96